createdAt,value
2019-01-28T00:01:24.022Z,2.80
2019-01-28T00:06:25.807Z,3.07
2019-01-28T00:11:27.996Z,2.80
2019-01-28T00:16:30.186Z,4.47
2019-01-28T00:21:32.102Z,3.00
2019-01-28T00:26:33.838Z,2.87
2019-01-28T00:31:36.015Z,2.70
2019-01-28T00:36:37.885Z,2.80
2019-01-28T00:41:40.071Z,3.10
2019-01-28T00:46:41.942Z,1.90
2019-01-28T00:51:43.815Z,2.50
2019-01-28T00:56:45.684Z,1.90
2019-01-28T01:01:47.473Z,3.43
2019-01-28T01:06:49.426Z,2.60
2019-01-28T01:11:51.718Z,2.70
2019-01-28T01:16:53.603Z,2.63
2019-01-28T01:21:55.469Z,2.83
2019-01-28T01:26:57.168Z,3.27
2019-01-28T01:31:59.657Z,2.23
2019-01-28T01:37:01.331Z,2.33
2019-01-28T01:42:03.215Z,2.53
2019-01-28T01:47:04.995Z,3.47
2019-01-28T01:52:06.873Z,3.20
2019-01-28T01:57:08.754Z,2.73
2019-01-28T02:02:10.636Z,3.00
2019-01-28T02:07:12.510Z,2.93
2019-01-28T02:12:14.696Z,3.50
2019-01-28T02:17:16.885Z,3.10
2019-01-28T02:22:18.663Z,3.93
2019-01-28T02:27:20.751Z,2.43
2019-01-28T02:32:22.944Z,3.47
2019-01-28T02:37:24.726Z,3.50
2019-01-28T02:42:26.408Z,3.23
2019-01-28T02:47:28.189Z,2.77
2019-01-28T02:52:29.962Z,6.13
2019-01-28T02:57:32.048Z,3.30
2019-01-28T03:02:33.867Z,3.40
2019-01-28T03:07:35.707Z,3.93
2019-01-28T03:12:37.476Z,3.10
2019-01-28T03:17:39.287Z,3.47
2019-01-28T03:22:41.851Z,3.40
2019-01-28T03:27:44.554Z,3.30
2019-01-28T03:32:47.864Z,3.23
2019-01-28T03:37:49.946Z,3.13
2019-01-28T03:42:52.033Z,4.37
2019-01-28T03:47:54.324Z,3.77
2019-01-28T03:52:56.619Z,3.60
2019-01-28T03:57:58.902Z,2.60
2019-01-28T04:03:01.089Z,3.43
2019-01-28T04:08:03.510Z,4.40
2019-01-28T04:13:05.375Z,3.43
2019-01-28T04:18:07.172Z,3.90
2019-01-28T04:23:09.007Z,5.90
2019-01-28T04:28:11.069Z,5.13
2019-01-28T04:33:13.709Z,4.60
2019-01-28T04:38:15.508Z,4.40
2019-01-28T04:43:17.701Z,6.40
2019-01-28T04:48:19.479Z,5.27
2019-01-28T04:53:21.269Z,5.10
2019-01-28T04:58:23.457Z,5.17
2019-01-28T05:03:25.248Z,5.10
2019-01-28T05:08:27.560Z,4.40
2019-01-28T05:13:29.659Z,4.53
2019-01-28T05:18:31.552Z,4.30
2019-01-28T05:23:33.442Z,5.30
2019-01-28T05:28:35.215Z,5.63
2019-01-28T05:33:37.398Z,3.50
2019-01-28T05:38:39.178Z,4.27
2019-01-28T05:43:41.065Z,6.33
2019-01-28T05:48:42.869Z,4.93
2019-01-28T05:53:44.673Z,5.00
2019-01-28T05:58:46.459Z,5.87
2019-01-28T06:03:48.336Z,6.00
2019-01-28T06:08:59.363Z,6.60
2019-01-28T06:14:01.448Z,5.07
2019-01-28T06:19:03.233Z,5.83
2019-01-28T06:24:05.430Z,5.83
2019-01-28T06:29:07.201Z,8.17
2019-01-28T06:34:15.462Z,6.27
2019-01-28T06:39:17.586Z,5.50
2019-01-28T06:44:19.330Z,5.70
2019-01-28T06:49:21.214Z,6.97
2019-01-28T06:54:23.098Z,7.30
2019-01-28T06:59:24.888Z,7.97
2019-01-28T07:04:26.672Z,8.93
2019-01-28T07:09:28.441Z,8.00
2019-01-28T07:14:30.678Z,10.53
2019-01-28T07:19:32.473Z,7.67
2019-01-28T07:24:34.250Z,9.00
2019-01-28T07:35:09.103Z,6.97
2019-01-28T07:40:13.586Z,8.53
2019-01-28T07:45:27.158Z,9.37
2019-01-28T07:50:29.348Z,7.80
2019-01-28T07:55:36.256Z,8.53
2019-01-28T08:00:38.009Z,10.97
2019-01-28T08:05:39.651Z,13.50
2019-01-28T08:10:41.344Z,7.10
2019-01-28T08:15:43.114Z,16.77
2019-01-28T08:20:47.007Z,11.40
2019-01-28T08:25:49.212Z,9.40
2019-01-28T08:30:50.985Z,11.70
2019-01-28T08:35:52.864Z,10.50
2019-01-28T08:40:54.640Z,12.40
2019-01-28T08:45:56.421Z,11.00
2019-01-28T08:51:00.462Z,10.80
2019-01-28T08:56:06.668Z,10.67
2019-01-28T09:01:08.635Z,9.80
2019-01-28T09:06:10.309Z,10.70
2019-01-28T09:11:12.089Z,10.67
2019-01-28T09:16:13.870Z,12.87
2019-01-28T09:21:16.107Z,14.97
2019-01-28T09:26:17.945Z,10.93
2019-01-28T09:31:19.879Z,11.60
2019-01-28T09:36:22.019Z,11.90
2019-01-28T09:41:23.896Z,10.50
2019-01-28T09:46:25.645Z,11.40
2019-01-28T09:51:27.802Z,12.10
2019-01-28T09:56:29.644Z,12.50
2019-01-28T10:01:31.430Z,14.17
2019-01-28T10:06:33.213Z,16.43
2019-01-28T10:11:36.112Z,13.17
2019-01-28T10:16:38.631Z,12.13
2019-01-28T10:21:40.909Z,12.00
2019-01-28T10:26:42.806Z,14.50
2019-01-28T10:31:47.122Z,14.70
2019-01-28T10:36:49.017Z,15.40
2019-01-28T10:41:51.053Z,11.30
2019-01-28T10:46:52.888Z,16.53
2019-01-28T10:51:54.928Z,17.50
2019-01-28T10:56:56.806Z,13.97
2019-01-28T11:01:58.591Z,12.77
2019-01-28T11:07:00.471Z,13.43
2019-01-28T11:12:02.465Z,27.00
2019-01-28T11:17:04.554Z,12.70
2019-01-28T11:22:06.776Z,27.50
2019-01-28T11:27:08.917Z,28.70
2019-01-28T11:32:10.730Z,29.33
2019-01-28T11:37:12.774Z,28.43
2019-01-28T11:42:14.448Z,28.63
2019-01-28T11:47:16.274Z,26.17
2019-01-28T11:52:18.773Z,13.60
2019-01-28T11:57:20.946Z,12.17
2019-01-28T12:02:34.205Z,24.73
2019-01-28T12:07:33.310Z,16.57
2019-01-28T12:12:34.997Z,26.20
2019-01-28T12:17:36.849Z,24.47
2019-01-28T12:22:39.182Z,33.33
2019-01-28T12:27:41.694Z,29.70
2019-01-28T12:32:43.450Z,32.17
2019-01-28T12:37:47.805Z,29.70
2019-01-28T12:42:49.706Z,24.27
2019-01-28T12:47:51.902Z,19.47
2019-01-28T12:52:54.238Z,16.30
2019-01-28T12:57:56.306Z,10.03
2019-01-28T13:02:58.259Z,11.93
2019-01-28T13:08:00.006Z,11.73
2019-01-28T13:13:01.780Z,14.20
2019-01-28T13:18:04.215Z,13.30
2019-01-28T13:23:07.396Z,15.03
2019-01-28T13:28:09.444Z,18.70
2019-01-28T13:33:12.558Z,15.67
2019-01-28T13:38:14.422Z,19.80
2019-01-28T13:43:16.318Z,24.10
2019-01-28T13:48:18.489Z,20.10
2019-01-28T13:53:20.666Z,20.57
2019-01-28T13:58:22.455Z,26.80
2019-01-28T14:03:24.232Z,21.57
2019-01-28T14:08:26.126Z,31.10
2019-01-28T14:13:27.893Z,29.63
2019-01-28T14:18:29.727Z,34.80
2019-01-28T14:23:31.894Z,33.73
2019-01-28T14:28:33.725Z,40.70
2019-01-28T14:33:35.475Z,33.20
2019-01-28T14:38:37.326Z,35.77
2019-01-28T14:43:38.943Z,32.10
2019-01-28T14:48:48.768Z,36.70
2019-01-28T14:53:45.134Z,28.50
2019-01-28T14:59:01.934Z,24.43
2019-01-28T15:04:09.683Z,24.63
2019-01-28T15:09:09.347Z,24.80
2019-01-28T15:14:11.097Z,27.73
2019-01-28T15:19:12.865Z,24.40
2019-01-28T15:24:14.652Z,27.30
2019-01-28T15:29:16.872Z,33.70
2019-01-28T15:34:18.594Z,33.10
2019-01-28T15:39:23.212Z,28.70
2019-01-28T15:44:24.840Z,20.90
2019-01-28T15:49:26.851Z,18.23
2019-01-28T15:54:28.737Z,28.13
2019-01-28T15:59:31.092Z,23.40
2019-01-28T16:04:33.501Z,22.50
2019-01-28T16:09:35.274Z,17.50
2019-01-28T16:14:37.030Z,27.50
2019-01-28T16:19:38.925Z,25.20
2019-01-28T16:24:41.038Z,22.33
2019-01-28T16:29:43.285Z,29.27
2019-01-28T16:34:45.629Z,24.07
2019-01-28T16:39:48.029Z,21.20
2019-01-28T16:44:49.792Z,21.30
2019-01-28T16:49:51.539Z,23.23
2019-01-28T16:54:53.308Z,23.93
2019-01-28T16:59:55.376Z,19.50
2019-01-28T17:04:57.255Z,17.43
2019-01-28T17:09:59.399Z,17.90
2019-01-28T17:15:01.160Z,18.93
2019-01-28T17:20:06.532Z,16.97
2019-01-28T17:25:11.811Z,17.10
2019-01-28T17:30:32.779Z,13.80
2019-01-28T17:35:34.927Z,13.63
2019-01-28T17:40:38.914Z,14.73
2019-01-28T17:45:40.791Z,11.10
2019-01-28T17:50:43.638Z,11.87
2019-01-28T17:55:45.792Z,10.03
2019-01-28T18:00:49.308Z,13.50
2019-01-28T18:05:51.068Z,11.23
2019-01-28T18:10:52.893Z,9.33
2019-01-28T18:15:54.977Z,8.30
2019-01-28T18:20:56.744Z,9.30
2019-01-28T18:25:59.467Z,11.77
2019-01-28T18:31:01.542Z,11.07
2019-01-28T18:36:05.611Z,10.23
2019-01-28T18:41:07.604Z,12.00
2019-01-28T18:46:09.658Z,9.70
2019-01-28T18:51:11.701Z,10.50
2019-01-28T18:56:13.578Z,10.27
2019-01-28T19:01:15.919Z,8.20
2019-01-28T19:06:25.853Z,8.80
2019-01-28T19:11:39.091Z,8.73
2019-01-28T19:16:42.730Z,7.60
2019-01-28T19:21:46.387Z,8.97
2019-01-28T19:26:48.162Z,8.13
2019-01-28T19:31:49.977Z,6.63
2019-01-28T19:36:52.091Z,6.83
2019-01-28T19:41:54.162Z,6.77
2019-01-28T19:46:57.930Z,9.30
2019-01-28T19:51:59.832Z,8.70
2019-01-28T19:57:01.794Z,7.67
2019-01-28T20:02:04.317Z,12.13
2019-01-28T20:07:06.097Z,8.67
2019-01-28T20:12:08.143Z,7.37
2019-01-28T20:17:10.015Z,8.53
2019-01-28T20:22:11.868Z,7.13
2019-01-28T20:27:13.771Z,7.20
2019-01-28T20:32:15.471Z,7.27
2019-01-28T20:37:17.194Z,9.43
2019-01-28T20:42:20.198Z,7.90
2019-01-28T20:47:21.927Z,8.50
2019-01-28T20:52:23.660Z,9.03
2019-01-28T20:57:25.412Z,8.30
2019-01-28T21:02:27.299Z,8.90
2019-01-28T21:07:29.275Z,8.50
2019-01-28T21:12:31.581Z,8.30
2019-01-28T21:17:33.815Z,9.27
2019-01-28T21:22:35.917Z,7.73
2019-01-28T21:27:37.752Z,9.67
2019-01-28T21:32:39.643Z,9.10
2019-01-28T21:37:44.083Z,10.50
2019-01-28T21:42:46.692Z,8.90
2019-01-28T21:47:54.745Z,10.10
2019-01-28T21:52:57.031Z,9.73
2019-01-28T21:57:58.947Z,9.20
2019-01-28T22:03:00.757Z,9.53
2019-01-28T22:08:03.704Z,11.00
2019-01-28T22:13:05.479Z,9.30
2019-01-28T22:18:07.669Z,9.03
2019-01-28T22:23:12.159Z,8.00
2019-01-28T22:28:13.884Z,8.23
2019-01-28T22:33:15.553Z,6.20
2019-01-28T22:38:19.482Z,5.53
2019-01-28T22:43:21.876Z,8.23
2019-01-28T22:48:23.681Z,10.17
2019-01-28T22:53:26.368Z,9.50
2019-01-28T22:58:28.232Z,7.03
2019-01-28T23:03:30.033Z,6.03
2019-01-28T23:08:31.812Z,6.10
2019-01-28T23:13:33.608Z,6.60
2019-01-28T23:18:35.514Z,4.50
2019-01-28T23:23:37.712Z,6.33
2019-01-28T23:28:39.505Z,4.80
2019-01-28T23:33:41.295Z,6.47
2019-01-28T23:38:43.029Z,4.60
2019-01-28T23:43:45.435Z,6.67
2019-01-28T23:48:47.290Z,4.20
2019-01-28T23:53:49.087Z,5.50
2019-01-28T23:58:51.211Z,5.33
